createdAt,value
2022-12-09T00:00:11.860Z,7.30
2022-12-09T00:04:15.081Z,7.16
2022-12-09T00:08:15.452Z,7.16
2022-12-09T00:12:15.606Z,7.09
2022-12-09T00:16:17.666Z,7.02
2022-12-09T00:20:20.386Z,6.89
2022-12-09T00:24:20.477Z,6.80
2022-12-09T00:28:20.807Z,6.70
2022-12-09T00:32:21.243Z,6.64
2022-12-09T00:36:26.226Z,6.51
2022-12-09T00:40:26.566Z,6.49
2022-12-09T00:44:26.711Z,6.43
2022-12-09T00:48:27.313Z,6.33
2022-12-09T00:52:30.049Z,6.09
2022-12-09T00:56:33.257Z,5.86
2022-12-09T01:00:34.076Z,5.82
2022-12-09T01:04:34.449Z,5.75
2022-12-09T01:08:39.322Z,5.47
2022-12-09T01:12:39.802Z,5.46
2022-12-09T01:16:42.451Z,5.33
2022-12-09T01:20:43.425Z,5.34
2022-12-09T01:24:47.979Z,5.60
2022-12-09T01:28:52.522Z,5.31
2022-12-09T01:32:53.311Z,5.32
2022-12-09T01:36:53.955Z,5.13
2022-12-09T01:40:56.698Z,5.24
2022-12-09T01:45:40.748Z,5.50
2022-12-09T01:49:48.284Z,5.71
2022-12-09T01:53:53.939Z,5.75
2022-12-09T01:57:57.122Z,5.79
2022-12-09T02:02:03.408Z,5.95
2022-12-09T02:06:03.780Z,5.91
2022-12-09T02:10:08.946Z,5.96
2022-12-09T02:14:23.780Z,5.91
2022-12-09T02:18:39.138Z,5.85
2022-12-09T02:22:46.092Z,5.98
2022-12-09T02:26:56.337Z,6.04
2022-12-09T02:31:20.481Z,6.01
2022-12-09T02:35:30.459Z,5.90
2022-12-09T02:39:39.377Z,6.00
2022-12-09T02:43:50.353Z,6.03
2022-12-09T02:47:58.228Z,6.20
2022-12-09T02:52:02.484Z,6.25
2022-12-09T02:56:06.818Z,6.32
2022-12-09T03:00:11.296Z,6.38
2022-12-09T03:04:19.899Z,6.38
2022-12-09T03:08:38.973Z,6.24
2022-12-09T03:12:43.900Z,6.18
2022-12-09T03:16:52.607Z,6.31
2022-12-09T03:20:54.261Z,6.03
2022-12-09T03:25:04.289Z,6.20
2022-12-09T03:29:10.054Z,5.99
2022-12-09T03:33:12.427Z,6.08
2022-12-09T03:37:18.339Z,6.02
2022-12-09T03:41:30.996Z,5.98
2022-12-09T03:45:31.858Z,6.12
2022-12-09T03:49:32.578Z,6.15
2022-12-09T03:53:41.450Z,6.28
2022-12-09T03:57:48.573Z,6.39
2022-12-09T04:01:50.206Z,6.47
2022-12-09T04:05:50.484Z,6.57
2022-12-09T04:09:50.850Z,6.64
2022-12-09T04:13:53.558Z,6.56
2022-12-09T04:17:54.053Z,6.60
2022-12-09T04:21:54.374Z,6.83
2022-12-09T04:25:54.819Z,6.83
2022-12-09T04:29:57.952Z,6.81
2022-12-09T04:33:59.835Z,6.84
2022-12-09T04:38:02.776Z,6.87
2022-12-09T04:42:03.257Z,6.83
2022-12-09T04:46:09.005Z,6.76
2022-12-09T04:50:11.364Z,6.84
2022-12-09T04:54:16.739Z,6.91
2022-12-09T04:58:16.881Z,6.83
2022-12-09T05:02:19.854Z,6.96
2022-12-09T05:06:22.083Z,6.99
2022-12-09T05:10:22.838Z,6.84
2022-12-09T05:14:23.198Z,6.82
2022-12-09T05:18:26.022Z,6.75
2022-12-09T05:22:27.169Z,6.75
2022-12-09T05:26:27.759Z,6.82
2022-12-09T05:30:28.300Z,7.01
2022-12-09T05:34:32.035Z,7.10
2022-12-09T05:38:33.537Z,6.95
2022-12-09T05:42:40.966Z,7.22
2022-12-09T05:46:41.953Z,7.02
2022-12-09T05:50:45.024Z,7.17
2022-12-09T05:54:45.426Z,7.36
2022-12-09T05:58:46.221Z,7.35
2022-12-09T06:02:46.984Z,7.37
2022-12-09T06:06:50.040Z,7.34
2022-12-09T06:10:50.399Z,7.41
2022-12-09T06:14:51.006Z,7.43
2022-12-09T06:18:52.592Z,7.55
2022-12-09T06:22:55.827Z,7.36
2022-12-09T06:26:56.856Z,7.35
2022-12-09T06:31:00.019Z,7.36
2022-12-09T06:35:01.311Z,7.27
2022-12-09T06:39:10.564Z,7.24
2022-12-09T06:43:11.302Z,7.06
2022-12-09T06:47:11.883Z,6.95
2022-12-09T06:51:12.810Z,6.91
2022-12-09T06:55:16.855Z,6.95
2022-12-09T06:59:17.505Z,7.06
2022-12-09T07:03:18.051Z,7.07
2022-12-09T07:07:19.120Z,7.02
2022-12-09T07:11:22.720Z,6.65
2022-12-09T07:15:23.524Z,6.92
2022-12-09T07:19:26.312Z,7.05
2022-12-09T07:23:27.191Z,7.40
2022-12-09T07:27:29.933Z,7.56
2022-12-09T07:31:32.018Z,7.48
2022-12-09T07:35:33.045Z,7.65
2022-12-09T07:39:33.631Z,7.65
2022-12-09T07:43:36.760Z,7.74
2022-12-09T07:47:37.475Z,7.73
2022-12-09T07:51:38.223Z,7.50
2022-12-09T07:55:38.647Z,7.76
2022-12-09T07:59:41.592Z,7.73
2022-12-09T08:03:43.477Z,7.46
2022-12-09T08:07:44.710Z,7.80
2022-12-09T08:11:46.205Z,8.03
2022-12-09T08:15:49.421Z,8.20
2022-12-09T08:19:50.159Z,8.52
2022-12-09T08:23:51.526Z,8.58
2022-12-09T08:27:52.070Z,8.77
2022-12-09T08:31:55.390Z,9.03
2022-12-09T08:35:56.424Z,9.17
2022-12-09T08:39:56.619Z,9.03
2022-12-09T08:43:57.022Z,8.92
2022-12-09T08:48:00.320Z,9.00
2022-12-09T08:52:01.174Z,9.19
2022-12-09T08:56:02.034Z,9.12
2022-12-09T09:00:02.224Z,8.93
2022-12-09T09:04:10.667Z,9.09
2022-12-09T09:08:11.155Z,9.05
2022-12-09T09:12:11.502Z,8.84
2022-12-09T09:16:14.942Z,9.12
2022-12-09T09:20:18.425Z,9.30
2022-12-09T09:24:22.937Z,9.10
2022-12-09T09:28:28.978Z,9.66
2022-12-09T09:32:32.885Z,10.10
2022-12-09T09:36:36.856Z,10.90
2022-12-09T09:40:37.427Z,11.32
2022-12-09T09:44:43.255Z,11.55
2022-12-09T09:48:43.937Z,11.70
2022-12-09T09:52:46.779Z,11.92
2022-12-09T09:56:56.704Z,11.76
2022-12-09T10:01:06.622Z,11.30
2022-12-09T10:05:23.123Z,11.01
2022-12-09T10:09:39.790Z,10.37
2022-12-09T10:13:56.282Z,9.68
2022-12-09T10:18:14.524Z,9.91
2022-12-09T10:22:19.538Z,10.30
2022-12-09T10:26:30.299Z,10.17
2022-12-09T10:30:37.271Z,9.78
2022-12-09T10:34:42.609Z,10.00
2022-12-09T10:38:46.034Z,9.86
2022-12-09T10:43:05.584Z,9.65
2022-12-09T10:47:08.254Z,10.08
2022-12-09T10:51:17.605Z,10.11
2022-12-09T10:55:32.876Z,10.55
2022-12-09T10:59:38.136Z,10.55
2022-12-09T11:03:43.330Z,10.59
2022-12-09T11:07:51.315Z,10.65
2022-12-09T11:11:53.580Z,10.79
2022-12-09T11:16:01.621Z,10.77
2022-12-09T11:20:23.296Z,10.98
2022-12-09T11:24:25.456Z,11.02
2022-12-09T11:28:31.988Z,11.10
2022-12-09T11:32:35.638Z,10.92
2022-12-09T11:36:43.988Z,10.63
2022-12-09T11:40:44.644Z,11.18
2022-12-09T11:44:53.521Z,11.33
2022-12-09T11:49:03.448Z,11.21
2022-12-09T11:53:26.786Z,11.14
2022-12-09T11:57:37.421Z,11.10
2022-12-09T12:01:51.245Z,11.29
2022-12-09T12:05:58.788Z,10.77
2022-12-09T12:10:01.396Z,10.89
2022-12-09T12:14:09.384Z,11.19
2022-12-09T12:18:25.731Z,11.23
2022-12-09T12:23:08.402Z,11.14
2022-12-09T12:27:28.028Z,10.48
2022-12-09T12:32:07.263Z,11.13
2022-12-09T12:36:19.557Z,11.28
2022-12-09T12:40:39.422Z,11.17
2022-12-09T12:45:05.243Z,11.07
2022-12-09T12:49:42.253Z,10.62
2022-12-09T12:53:54.037Z,10.05
2022-12-09T12:58:09.646Z,9.95
2022-12-09T13:02:31.424Z,10.05
2022-12-09T13:06:43.910Z,9.66
2022-12-09T13:10:48.568Z,9.79
2022-12-09T13:14:56.855Z,9.79
2022-12-09T13:19:04.252Z,9.98
2022-12-09T13:23:14.915Z,10.54
2022-12-09T13:27:26.261Z,10.39
2022-12-09T13:31:33.602Z,10.32
2022-12-09T13:35:45.990Z,10.38
2022-12-09T13:40:01.243Z,10.30
2022-12-09T13:44:14.525Z,10.27
2022-12-09T13:48:47.332Z,10.16
2022-12-09T13:52:53.698Z,10.17
2022-12-09T13:57:21.099Z,10.12
2022-12-09T14:01:31.972Z,10.21
2022-12-09T14:05:39.569Z,9.79
2022-12-09T14:09:51.029Z,9.94
2022-12-09T14:13:51.908Z,10.04
2022-12-09T14:18:07.027Z,9.98
2022-12-09T14:22:41.932Z,9.84
2022-12-09T14:26:48.850Z,9.80
2022-12-09T14:30:54.991Z,9.63
2022-12-09T14:35:32.896Z,9.74
2022-12-09T14:39:47.722Z,9.88
2022-12-09T14:44:06.150Z,9.72
2022-12-09T14:48:14.055Z,9.78
2022-12-09T14:52:23.322Z,9.66
2022-12-09T14:56:29.118Z,9.73
2022-12-09T15:00:34.902Z,9.66
2022-12-09T15:04:39.407Z,9.43
2022-12-09T15:08:43.016Z,9.46
2022-12-09T15:12:50.060Z,9.46
2022-12-09T15:16:51.128Z,9.51
2022-12-09T15:20:55.675Z,9.35
2022-12-09T15:24:56.871Z,9.19
2022-12-09T15:29:05.257Z,9.21
2022-12-09T15:33:06.562Z,9.24
2022-12-09T15:37:09.371Z,9.16
2022-12-09T15:41:37.358Z,9.21
2022-12-09T15:45:46.006Z,9.25
2022-12-09T15:49:54.607Z,9.14
2022-12-09T15:54:01.271Z,8.82
2022-12-09T15:58:06.047Z,8.72
2022-12-09T16:02:12.761Z,9.05
2022-12-09T16:06:13.678Z,9.04
2022-12-09T16:10:18.099Z,8.98
2022-12-09T16:14:20.510Z,8.99
2022-12-09T16:18:27.747Z,8.91
2022-12-09T16:22:32.983Z,8.90
2022-12-09T16:26:37.906Z,8.73
2022-12-09T16:30:49.996Z,8.81
2022-12-09T16:34:55.490Z,8.59
2022-12-09T16:39:48.230Z,8.57
2022-12-09T16:44:21.465Z,8.32
2022-12-09T16:48:23.992Z,8.52
2022-12-09T16:52:27.592Z,8.48
2022-12-09T16:56:34.738Z,8.39
2022-12-09T17:00:35.010Z,8.43
2022-12-09T17:04:35.119Z,8.36
2022-12-09T17:08:37.352Z,8.45
2022-12-09T17:12:40.054Z,8.27
2022-12-09T17:16:40.915Z,8.40
2022-12-09T17:20:41.605Z,8.44
2022-12-09T17:24:42.502Z,8.44
2022-12-09T17:28:46.735Z,8.46
2022-12-09T17:32:46.962Z,8.50
2022-12-09T17:36:48.012Z,8.46
2022-12-09T17:40:48.396Z,8.50
2022-12-09T17:44:51.073Z,8.53
2022-12-09T17:48:51.308Z,8.57
2022-12-09T17:52:51.396Z,8.40
2022-12-09T17:56:51.530Z,8.45
2022-12-09T18:00:54.286Z,8.26
2022-12-09T18:04:54.645Z,8.40
2022-12-09T18:08:55.115Z,8.52
2022-12-09T18:12:55.203Z,8.48
2022-12-09T18:16:58.077Z,8.46
2022-12-09T18:21:03.015Z,8.25
2022-12-09T18:25:03.105Z,8.30
2022-12-09T18:29:03.424Z,8.31
2022-12-09T18:33:06.380Z,8.30
2022-12-09T18:37:06.706Z,8.25
2022-12-09T18:41:07.280Z,8.17
2022-12-09T18:45:08.748Z,8.43
2022-12-09T18:49:15.723Z,8.48
2022-12-09T18:53:15.804Z,8.53
2022-12-09T18:57:15.948Z,8.66
2022-12-09T19:01:23.996Z,8.70
2022-12-09T19:05:26.724Z,8.65
2022-12-09T19:09:31.843Z,8.58
2022-12-09T19:13:33.139Z,8.49
2022-12-09T19:17:33.441Z,8.41
2022-12-09T19:21:36.075Z,8.54
2022-12-09T19:25:36.179Z,8.42
2022-12-09T19:29:36.258Z,8.59
2022-12-09T19:33:36.377Z,8.50
2022-12-09T19:37:39.072Z,8.54
2022-12-09T19:41:40.469Z,8.54
2022-12-09T19:45:40.668Z,8.76
2022-12-09T19:49:42.154Z,8.48
2022-12-09T19:53:46.509Z,8.40
2022-12-09T19:57:46.574Z,8.72
2022-12-09T20:01:48.514Z,8.84
2022-12-09T20:05:54.139Z,8.80
2022-12-09T20:09:56.889Z,8.85
2022-12-09T20:13:59.537Z,8.54
2022-12-09T20:17:59.662Z,8.87
2022-12-09T20:21:59.823Z,8.88
2022-12-09T20:26:10.402Z,8.76
2022-12-09T20:30:12.893Z,8.63
2022-12-09T20:34:18.088Z,8.86
2022-12-09T20:38:18.223Z,8.99
2022-12-09T20:42:20.887Z,8.78
2022-12-09T20:46:24.728Z,8.90
2022-12-09T20:50:25.044Z,8.90
2022-12-09T20:54:25.992Z,8.94
2022-12-09T20:58:29.158Z,8.80
2022-12-09T21:02:29.467Z,8.79
2022-12-09T21:06:33.142Z,8.81
2022-12-09T21:10:33.447Z,8.81
2022-12-09T21:14:37.085Z,8.49
2022-12-09T21:18:39.541Z,8.83
2022-12-09T21:22:40.026Z,8.77
2022-12-09T21:26:41.165Z,8.73
2022-12-09T21:30:44.121Z,8.62
2022-12-09T21:34:44.672Z,8.37
2022-12-09T21:38:45.939Z,8.57
2022-12-09T21:42:46.359Z,8.58
2022-12-09T21:46:49.270Z,8.52
2022-12-09T21:50:57.470Z,8.61
2022-12-09T21:54:58.204Z,8.62
2022-12-09T21:59:00.827Z,8.53
2022-12-09T22:03:03.779Z,8.42
2022-12-09T22:07:03.854Z,8.58
2022-12-09T22:11:04.090Z,8.39
2022-12-09T22:15:04.586Z,8.46
2022-12-09T22:19:10.943Z,8.41
2022-12-09T22:23:11.437Z,8.44
2022-12-09T22:27:11.811Z,8.33
2022-12-09T22:31:13.668Z,8.09
2022-12-09T22:35:16.916Z,8.45
2022-12-09T22:39:19.228Z,8.36
2022-12-09T22:43:19.355Z,8.34
2022-12-09T22:47:19.601Z,8.16
2022-12-09T22:51:26.305Z,8.37
2022-12-09T22:55:26.457Z,8.43
2022-12-09T22:59:26.651Z,8.46
2022-12-09T23:03:27.429Z,7.65
2022-12-09T23:07:30.637Z,8.19
2022-12-09T23:11:31.714Z,8.16
2022-12-09T23:15:31.923Z,8.21
2022-12-09T23:19:32.000Z,8.30
2022-12-09T23:23:35.559Z,8.37
2022-12-09T23:27:35.629Z,8.38
2022-12-09T23:31:39.278Z,8.39
2022-12-09T23:35:41.173Z,8.20
2022-12-09T23:39:44.206Z,8.35
2022-12-09T23:43:45.073Z,8.39
2022-12-09T23:47:46.152Z,8.43
2022-12-09T23:51:46.692Z,8.51
2022-12-09T23:55:49.337Z,8.47
2022-12-09T23:59:49.923Z,8.37
